createdAt,value
2018-06-25T00:00:19.769Z,22.00
2018-06-25T00:02:46.445Z,21.98
2018-06-25T00:05:13.665Z,22.06
2018-06-25T00:07:40.340Z,21.99
2018-06-25T00:10:07.125Z,21.97
2018-06-25T00:12:33.835Z,21.96
2018-06-25T00:15:00.509Z,22.00
2018-06-25T00:17:27.213Z,22.02
2018-06-25T00:19:53.898Z,21.97
2018-06-25T00:22:20.586Z,21.93
2018-06-25T00:24:47.260Z,21.96
2018-06-25T00:27:13.952Z,21.88
2018-06-25T00:29:40.657Z,21.96
2018-06-25T00:32:07.360Z,21.95
2018-06-25T00:34:34.060Z,21.89
2018-06-25T00:37:00.741Z,21.92
2018-06-25T00:39:27.401Z,21.95
2018-06-25T00:41:54.066Z,21.96
2018-06-25T00:44:20.724Z,21.95
2018-06-25T00:46:47.394Z,21.95
2018-06-25T00:49:14.089Z,21.97
2018-06-25T00:51:40.752Z,21.94
2018-06-25T00:54:07.457Z,21.95
2018-06-25T00:56:34.112Z,21.97
2018-06-25T00:59:06.433Z,21.86
2018-06-25T01:01:33.076Z,21.83
2018-06-25T01:04:00.673Z,21.91
2018-06-25T01:06:27.366Z,21.85
2018-06-25T01:08:54.027Z,21.81
2018-06-25T01:11:20.779Z,21.81
2018-06-25T01:13:48.401Z,21.87
2018-06-25T01:16:15.056Z,21.89
2018-06-25T01:18:44.074Z,21.87
2018-06-25T01:21:12.538Z,21.82
2018-06-25T01:23:39.189Z,21.86
2018-06-25T01:26:06.846Z,21.86
2018-06-25T01:28:33.613Z,21.86
2018-06-25T01:31:00.265Z,21.83
2018-06-25T01:33:27.744Z,21.87
2018-06-25T01:35:55.372Z,21.87
2018-06-25T01:38:22.956Z,21.81
2018-06-25T01:40:50.537Z,21.82
2018-06-25T01:43:17.188Z,21.86
2018-06-25T01:45:44.769Z,21.92
2018-06-25T01:48:13.301Z,21.86
2018-06-25T01:50:40.853Z,21.88
2018-06-25T01:53:08.423Z,21.87
2018-06-25T01:55:36.042Z,21.87
2018-06-25T01:58:02.709Z,21.89
2018-06-25T02:00:29.356Z,21.90
2018-06-25T02:02:57.006Z,21.85
2018-06-25T02:05:24.612Z,21.82
2018-06-25T02:07:51.333Z,21.85
2018-06-25T02:10:17.988Z,21.83
2018-06-25T02:12:44.696Z,21.80
2018-06-25T02:15:12.297Z,21.86
2018-06-25T02:17:38.947Z,21.86
2018-06-25T02:20:05.973Z,21.89
2018-06-25T02:22:32.693Z,21.89
2018-06-25T02:25:00.120Z,21.87
2018-06-25T02:27:26.777Z,21.87
2018-06-25T02:29:53.449Z,21.93
2018-06-25T02:32:20.084Z,21.86
2018-06-25T02:34:47.621Z,21.85
2018-06-25T02:37:14.276Z,21.84
2018-06-25T02:39:40.993Z,21.85
2018-06-25T02:42:07.643Z,21.87
2018-06-25T02:44:34.341Z,21.85
2018-06-25T02:47:01.027Z,21.85
2018-06-25T02:49:27.697Z,21.87
2018-06-25T02:51:54.434Z,21.79
2018-06-25T02:54:21.096Z,21.84
2018-06-25T02:56:47.796Z,21.82
2018-06-25T02:59:14.603Z,21.76
2018-06-25T03:01:42.184Z,21.77
2018-06-25T03:04:08.848Z,21.90
2018-06-25T03:06:35.503Z,21.85
2018-06-25T03:09:02.189Z,21.87
2018-06-25T03:11:28.866Z,21.85
2018-06-25T03:13:55.502Z,21.86
2018-06-25T03:16:22.629Z,21.85
2018-06-25T03:18:49.324Z,21.83
2018-06-25T03:21:15.987Z,21.81
2018-06-25T03:23:42.736Z,21.84
2018-06-25T03:26:09.453Z,21.83
2018-06-25T03:28:36.100Z,21.83
2018-06-25T03:31:02.735Z,21.82
2018-06-25T03:33:29.409Z,21.85
2018-06-25T03:35:56.909Z,21.82
2018-06-25T03:38:24.419Z,21.81
2018-06-25T03:40:51.105Z,21.81
2018-06-25T03:43:17.794Z,21.79
2018-06-25T03:45:45.390Z,21.82
2018-06-25T03:48:14.496Z,21.81
2018-06-25T03:50:41.148Z,21.79
2018-06-25T03:53:10.365Z,21.82
2018-06-25T03:55:37.045Z,21.77
2018-06-25T03:58:03.840Z,21.78
2018-06-25T04:00:31.293Z,21.81
2018-06-25T04:02:57.929Z,21.82
2018-06-25T04:05:24.566Z,21.82
2018-06-25T04:07:51.218Z,21.81
2018-06-25T04:10:18.846Z,21.84
2018-06-25T04:12:46.537Z,21.83
2018-06-25T04:15:14.144Z,21.85
2018-06-25T04:17:40.792Z,21.80
2018-06-25T04:20:07.454Z,21.79
2018-06-25T04:22:34.919Z,21.84
2018-06-25T04:25:01.604Z,21.81
2018-06-25T04:27:28.276Z,21.80
2018-06-25T04:29:54.929Z,21.83
2018-06-25T04:32:21.597Z,21.81
2018-06-25T04:34:48.245Z,21.83
2018-06-25T04:37:14.908Z,21.87
2018-06-25T04:39:42.579Z,21.83
2018-06-25T04:42:09.216Z,21.83
2018-06-25T04:44:35.870Z,21.86
2018-06-25T04:47:03.434Z,21.86
2018-06-25T04:49:30.086Z,21.86
2018-06-25T04:51:56.733Z,21.83
2018-06-25T04:54:23.374Z,21.81
2018-06-25T04:56:50.045Z,21.85
2018-06-25T04:59:17.648Z,21.86
2018-06-25T05:01:44.364Z,21.83
2018-06-25T05:04:11.052Z,21.83
2018-06-25T05:06:38.532Z,21.88
2018-06-25T05:09:06.857Z,21.85
2018-06-25T05:11:33.555Z,21.83
2018-06-25T05:14:00.264Z,21.89
2018-06-25T05:16:26.921Z,21.83
2018-06-25T05:18:53.604Z,21.88
2018-06-25T05:21:20.268Z,21.88
2018-06-25T05:23:46.976Z,21.87
2018-06-25T05:26:14.497Z,21.84
2018-06-25T05:28:41.160Z,21.92
2018-06-25T05:31:07.884Z,21.86
2018-06-25T05:33:34.526Z,21.87
2018-06-25T05:36:02.228Z,21.93
2018-06-25T05:38:29.729Z,21.96
2018-06-25T05:40:57.356Z,21.89
2018-06-25T05:43:24.005Z,21.81
2018-06-25T05:45:50.669Z,21.84
2018-06-25T05:48:17.316Z,21.87
2018-06-25T05:50:43.979Z,21.85
2018-06-25T05:53:10.633Z,21.87
2018-06-25T05:55:37.330Z,21.84
2018-06-25T05:58:03.985Z,21.83
2018-06-25T06:00:30.637Z,21.83
2018-06-25T06:02:58.316Z,21.85
2018-06-25T06:05:24.956Z,21.82
2018-06-25T06:07:51.629Z,21.86
2018-06-25T06:10:18.737Z,21.83
2018-06-25T06:12:45.439Z,21.83
2018-06-25T06:15:13.325Z,21.81
2018-06-25T06:17:40.021Z,21.75
2018-06-25T06:20:07.648Z,21.75
2018-06-25T06:22:35.289Z,21.79
2018-06-25T06:25:01.942Z,21.81
2018-06-25T06:27:28.628Z,21.84
2018-06-25T06:29:55.281Z,21.85
2018-06-25T06:32:22.908Z,21.78
2018-06-25T06:34:50.472Z,21.71
2018-06-25T06:37:17.961Z,21.84
2018-06-25T06:39:45.476Z,22.01
2018-06-25T06:42:14.541Z,22.05
2018-06-25T06:44:43.302Z,22.15
2018-06-25T06:47:10.924Z,22.20
2018-06-25T06:49:38.514Z,22.28
2018-06-25T06:52:05.265Z,22.36
2018-06-25T06:54:31.920Z,22.41
2018-06-25T06:56:59.436Z,22.44
2018-06-25T06:59:27.120Z,22.44
2018-06-25T07:01:54.688Z,22.42
2018-06-25T07:04:21.320Z,22.45
2018-06-25T07:06:48.078Z,22.50
2018-06-25T07:09:15.690Z,22.44
2018-06-25T07:11:43.453Z,22.42
2018-06-25T07:14:10.086Z,22.48
2018-06-25T07:16:37.302Z,22.46
2018-06-25T07:19:04.973Z,22.47
2018-06-25T07:21:31.685Z,22.46
2018-06-25T07:23:58.316Z,22.48
2018-06-25T07:26:25.494Z,22.58
2018-06-25T07:28:52.578Z,22.49
2018-06-25T07:31:19.233Z,22.58
2018-06-25T07:33:46.894Z,22.56
2018-06-25T07:36:13.558Z,22.58
2018-06-25T07:38:40.214Z,22.50
2018-06-25T07:41:06.866Z,22.52
2018-06-25T07:43:33.520Z,22.56
2018-06-25T07:46:00.157Z,22.51
2018-06-25T07:48:26.904Z,22.48
2018-06-25T07:50:53.582Z,22.47
2018-06-25T07:53:20.274Z,22.49
2018-06-25T07:55:46.965Z,22.47
2018-06-25T07:58:13.617Z,22.45
2018-06-25T08:00:41.115Z,22.46
2018-06-25T08:03:07.786Z,22.49
2018-06-25T08:05:35.425Z,22.47
2018-06-25T08:08:02.121Z,22.47
2018-06-25T08:10:28.837Z,22.44
2018-06-25T08:12:55.441Z,22.48
2018-06-25T08:15:22.925Z,22.48
2018-06-25T08:17:49.561Z,22.47
2018-06-25T08:20:16.242Z,22.43
2018-06-25T08:22:43.933Z,22.47
2018-06-25T08:25:10.589Z,22.49
2018-06-25T08:27:37.238Z,22.46
2018-06-25T08:30:04.060Z,22.47
2018-06-25T08:32:30.717Z,22.46
2018-06-25T08:34:57.371Z,22.45
2018-06-25T08:37:24.037Z,22.48
2018-06-25T08:39:50.668Z,22.46
2018-06-25T08:42:17.314Z,22.46
2018-06-25T08:44:44.122Z,22.46
2018-06-25T08:47:10.752Z,22.49
2018-06-25T08:49:37.397Z,22.45
2018-06-25T08:52:04.080Z,22.43
2018-06-25T08:54:31.798Z,22.48
2018-06-25T08:56:58.556Z,22.47
2018-06-25T08:59:26.199Z,22.48
2018-06-25T09:01:52.894Z,22.47
2018-06-25T09:04:20.516Z,22.47
2018-06-25T09:06:47.197Z,22.44
2018-06-25T09:09:14.861Z,22.45
2018-06-25T09:11:43.085Z,22.45
2018-06-25T09:14:09.776Z,22.41
2018-06-25T09:16:36.547Z,22.43
2018-06-25T09:19:03.246Z,22.47
2018-06-25T09:21:29.906Z,22.47
2018-06-25T09:23:56.589Z,22.47
2018-06-25T09:26:23.277Z,22.44
2018-06-25T09:28:51.100Z,22.44
2018-06-25T09:31:17.844Z,22.44
2018-06-25T09:33:44.569Z,22.43
2018-06-25T09:36:11.210Z,22.41
2018-06-25T09:38:38.834Z,22.42
2018-06-25T09:41:06.380Z,22.42
2018-06-25T09:43:33.133Z,22.42
2018-06-25T09:45:59.788Z,22.41
2018-06-25T09:48:26.466Z,22.43
2018-06-25T09:50:53.252Z,22.45
2018-06-25T09:53:19.901Z,22.48
2018-06-25T09:55:46.540Z,22.48
2018-06-25T09:58:13.248Z,22.44
2018-06-25T10:01:13.140Z,22.44
2018-06-25T10:03:40.745Z,22.22
2018-06-25T10:06:08.240Z,22.35
2018-06-25T10:08:35.576Z,22.40
2018-06-25T10:11:03.145Z,22.40
2018-06-25T10:13:30.749Z,22.42
2018-06-25T10:15:58.429Z,22.40
2018-06-25T10:18:25.082Z,22.42
2018-06-25T10:20:52.576Z,22.41
2018-06-25T10:23:20.241Z,22.42
2018-06-25T10:25:47.838Z,22.44
2018-06-25T10:28:15.470Z,22.40
2018-06-25T10:30:42.952Z,22.38
2018-06-25T10:33:09.613Z,22.38
2018-06-25T10:35:36.253Z,22.36
2018-06-25T10:38:02.902Z,22.40
2018-06-25T10:40:29.553Z,22.40
2018-06-25T10:42:56.214Z,22.37
2018-06-25T10:45:22.905Z,22.39
2018-06-25T10:47:49.558Z,22.39
2018-06-25T10:50:17.266Z,22.38
2018-06-25T10:52:43.906Z,22.41
2018-06-25T10:55:10.576Z,22.38
2018-06-25T10:57:37.217Z,22.42
2018-06-25T11:00:04.950Z,22.43
2018-06-25T11:02:31.377Z,22.39
2018-06-25T11:04:58.035Z,22.42
2018-06-25T11:07:24.806Z,22.38
2018-06-25T11:09:52.272Z,22.38
2018-06-25T11:12:19.742Z,22.38
2018-06-25T11:14:46.393Z,22.36
2018-06-25T11:17:14.510Z,22.40
2018-06-25T11:19:41.148Z,22.39
2018-06-25T11:22:08.615Z,22.40
2018-06-25T11:24:36.141Z,22.36
2018-06-25T11:27:02.985Z,22.37
2018-06-25T11:29:29.478Z,22.38
2018-06-25T11:31:56.119Z,22.32
2018-06-25T11:34:22.773Z,22.37
2018-06-25T11:36:49.418Z,22.37
2018-06-25T11:39:16.073Z,22.35
2018-06-25T11:41:43.845Z,22.36
2018-06-25T11:44:10.480Z,22.38
2018-06-25T11:46:37.140Z,22.39
2018-06-25T11:49:04.381Z,22.38
2018-06-25T11:51:31.099Z,22.37
2018-06-25T11:53:57.745Z,22.37
2018-06-25T11:56:24.397Z,22.33
2018-06-25T11:58:52.033Z,22.38
2018-06-25T12:01:18.725Z,22.32
2018-06-25T12:03:45.377Z,22.37
2018-06-25T12:06:12.780Z,22.37
2018-06-25T12:08:39.426Z,22.34
2018-06-25T12:11:05.984Z,22.35
2018-06-25T12:13:32.634Z,22.34
2018-06-25T12:15:59.285Z,22.36
2018-06-25T12:18:25.918Z,22.38
2018-06-25T12:20:52.565Z,22.31
2018-06-25T12:23:19.573Z,22.38
2018-06-25T12:25:46.201Z,22.35
2018-06-25T12:28:13.802Z,22.36
2018-06-25T12:30:40.446Z,22.36
2018-06-25T12:33:07.165Z,22.36
2018-06-25T12:35:33.885Z,22.37
2018-06-25T12:38:00.573Z,22.35
2018-06-25T12:40:27.217Z,22.36
2018-06-25T12:42:53.857Z,22.37
2018-06-25T12:45:20.493Z,22.37
2018-06-25T12:47:47.148Z,22.39
2018-06-25T12:50:13.834Z,22.35
2018-06-25T12:52:42.082Z,22.37
2018-06-25T12:55:09.689Z,22.34
2018-06-25T12:57:37.357Z,22.37
2018-06-25T13:00:04.001Z,22.37
2018-06-25T13:02:30.649Z,22.35
2018-06-25T13:04:57.585Z,22.39
2018-06-25T13:07:25.294Z,22.37
2018-06-25T13:09:52.453Z,22.36
2018-06-25T13:12:19.089Z,22.36
2018-06-25T13:14:45.765Z,22.37
2018-06-25T13:17:13.333Z,22.37
2018-06-25T13:19:40.033Z,22.36
2018-06-25T13:22:07.573Z,22.37
2018-06-25T13:24:34.272Z,22.37
2018-06-25T13:27:00.959Z,22.35
2018-06-25T13:29:27.597Z,22.32
2018-06-25T13:31:55.286Z,22.35
2018-06-25T13:34:22.914Z,22.35
2018-06-25T13:36:49.571Z,22.36
2018-06-25T13:39:17.221Z,22.35
2018-06-25T13:41:44.814Z,22.38
2018-06-25T13:44:12.459Z,22.37
2018-06-25T13:46:39.136Z,22.38
2018-06-25T13:49:05.788Z,22.39
2018-06-25T13:51:32.464Z,22.36
2018-06-25T13:54:00.016Z,22.37
2018-06-25T13:56:26.661Z,22.36
2018-06-25T13:58:53.321Z,22.37
2018-06-25T14:01:20.085Z,22.32
2018-06-25T14:03:46.756Z,22.37
2018-06-25T14:06:13.410Z,22.36
2018-06-25T14:08:40.078Z,22.36
2018-06-25T14:11:07.549Z,22.36
2018-06-25T14:13:35.125Z,22.36
2018-06-25T14:16:01.776Z,22.35
2018-06-25T14:18:29.442Z,22.38
2018-06-25T14:20:57.081Z,22.39
2018-06-25T14:23:24.728Z,22.37
2018-06-25T14:25:58.020Z,22.39
2018-06-25T14:28:30.558Z,22.35
2018-06-25T14:31:02.975Z,22.34
2018-06-25T14:33:36.151Z,22.33
2018-06-25T14:36:02.809Z,22.31
2018-06-25T14:38:30.289Z,22.33
2018-06-25T14:40:57.821Z,22.37
2018-06-25T14:43:25.466Z,22.36
2018-06-25T14:45:52.893Z,22.35
2018-06-25T14:48:19.688Z,22.35
2018-06-25T14:50:46.321Z,22.37
2018-06-25T14:53:13.546Z,22.38
2018-06-25T14:55:41.147Z,22.36
2018-06-25T14:58:07.881Z,22.35
2018-06-25T15:00:34.542Z,22.34
2018-06-25T15:03:01.205Z,22.37
2018-06-25T15:05:27.857Z,22.28
2018-06-25T15:07:54.494Z,22.41
2018-06-25T15:10:21.180Z,22.43
2018-06-25T15:12:47.824Z,22.47
2018-06-25T15:15:14.502Z,22.52
2018-06-25T15:17:41.145Z,22.40
2018-06-25T15:20:08.864Z,22.42
2018-06-25T15:22:36.358Z,22.42
2018-06-25T15:25:03.984Z,22.36
2018-06-25T15:27:30.630Z,22.39
2018-06-25T15:29:57.297Z,22.40
2018-06-25T15:32:27.269Z,22.40
2018-06-25T15:34:53.917Z,22.36
2018-06-25T15:37:21.518Z,22.37
2018-06-25T15:39:49.101Z,22.38
2018-06-25T15:42:15.746Z,22.34
2018-06-25T15:44:43.881Z,22.36
2018-06-25T15:47:10.525Z,22.37
2018-06-25T15:49:37.181Z,22.36
2018-06-25T15:52:03.844Z,22.36
2018-06-25T15:54:30.537Z,22.37
2018-06-25T15:56:57.183Z,22.37
2018-06-25T15:59:24.017Z,22.35
2018-06-25T16:01:50.674Z,22.36
2018-06-25T16:04:17.367Z,22.38
2018-06-25T16:06:44.163Z,22.35
2018-06-25T16:09:10.809Z,22.35
2018-06-25T16:11:37.473Z,22.34
2018-06-25T16:14:04.585Z,22.34
2018-06-25T16:16:32.185Z,22.36
2018-06-25T16:18:58.896Z,22.32
2018-06-25T16:21:25.537Z,22.28
2018-06-25T16:23:52.189Z,22.34
2018-06-25T16:26:18.853Z,22.29
2018-06-25T16:28:45.557Z,22.32
2018-06-25T16:31:13.258Z,22.29
2018-06-25T16:33:39.901Z,22.28
2018-06-25T16:36:06.606Z,22.29
2018-06-25T16:38:33.256Z,22.29
2018-06-25T16:40:59.896Z,22.27
2018-06-25T16:43:26.536Z,22.29
2018-06-25T16:45:53.197Z,22.25
2018-06-25T16:48:19.855Z,22.27
2018-06-25T16:50:46.530Z,22.27
2018-06-25T16:53:13.951Z,22.26
2018-06-25T16:55:40.597Z,22.25
2018-06-25T16:58:07.312Z,22.27
2018-06-25T17:00:33.991Z,22.25
2018-06-25T17:03:00.809Z,22.27
2018-06-25T17:05:27.521Z,22.26
2018-06-25T17:07:54.176Z,22.25
2018-06-25T17:10:20.816Z,22.25
2018-06-25T17:12:47.466Z,22.24
2018-06-25T17:15:14.117Z,22.26
2018-06-25T17:17:40.776Z,22.22
2018-06-25T17:20:07.445Z,22.22
2018-06-25T17:22:34.144Z,22.28
2018-06-25T17:25:01.471Z,22.27
2018-06-25T17:27:29.140Z,22.22
2018-06-25T17:29:55.793Z,22.25
2018-06-25T17:32:22.564Z,22.22
2018-06-25T17:34:50.175Z,22.20
2018-06-25T17:37:17.744Z,22.22
2018-06-25T17:39:44.397Z,22.22
2018-06-25T17:42:11.038Z,22.19
2018-06-25T17:44:37.701Z,22.19
2018-06-25T17:47:04.384Z,22.20
2018-06-25T17:49:31.072Z,22.25
2018-06-25T17:51:58.532Z,22.40
2018-06-25T17:54:26.042Z,22.52
2018-06-25T17:56:53.537Z,22.62
2018-06-25T17:59:20.291Z,22.70
2018-06-25T18:01:47.884Z,22.73
2018-06-25T18:04:15.550Z,22.75
2018-06-25T18:06:43.144Z,22.78
2018-06-25T18:09:13.361Z,22.83
2018-06-25T18:11:40.058Z,22.84
2018-06-25T18:14:06.700Z,22.85
2018-06-25T18:16:33.381Z,22.84
2018-06-25T18:19:00.046Z,22.86
2018-06-25T18:21:26.688Z,22.86
2018-06-25T18:23:53.445Z,22.82
2018-06-25T18:26:20.167Z,22.79
2018-06-25T18:28:46.797Z,22.75
2018-06-25T18:31:14.509Z,22.73
2018-06-25T18:33:41.277Z,22.72
2018-06-25T18:36:08.268Z,22.72
2018-06-25T18:38:34.917Z,22.74
2018-06-25T18:41:01.592Z,22.58
2018-06-25T18:43:28.487Z,22.72
2018-06-25T18:45:55.152Z,22.62
2018-06-25T18:48:22.155Z,22.70
2018-06-25T18:50:48.842Z,22.64
2018-06-25T18:53:15.579Z,22.64
2018-06-25T18:55:43.320Z,22.64
2018-06-25T18:58:10.155Z,22.63
2018-06-25T19:00:36.940Z,22.63
2018-06-25T19:03:03.789Z,22.61
2018-06-25T19:05:30.450Z,22.64
2018-06-25T19:07:58.271Z,22.63
2018-06-25T19:10:24.909Z,22.60
2018-06-25T19:12:51.545Z,22.57
2018-06-25T19:15:18.220Z,22.57
2018-06-25T19:17:44.882Z,22.57
2018-06-25T19:20:12.557Z,22.53
2018-06-25T19:22:39.249Z,22.53
2018-06-25T19:25:06.006Z,22.52
2018-06-25T19:27:32.676Z,22.51
2018-06-25T19:29:59.329Z,22.52
2018-06-25T19:32:26.002Z,22.50
2018-06-25T19:34:52.657Z,22.50
2018-06-25T19:37:19.325Z,22.49
2018-06-25T19:39:45.964Z,22.48
2018-06-25T19:42:13.715Z,22.46
2018-06-25T19:44:41.280Z,22.46
2018-06-25T19:47:07.945Z,22.43
2018-06-25T19:49:34.598Z,22.45
2018-06-25T19:52:01.237Z,22.43
2018-06-25T19:54:28.832Z,22.40
2018-06-25T19:56:55.578Z,22.40
2018-06-25T19:59:22.407Z,22.40
2018-06-25T20:01:49.064Z,22.44
2018-06-25T20:04:15.780Z,22.42
2018-06-25T20:06:43.539Z,22.37
2018-06-25T20:09:12.765Z,22.37
2018-06-25T20:11:39.923Z,22.37
2018-06-25T20:14:06.585Z,22.37
2018-06-25T20:16:33.310Z,22.37
2018-06-25T20:18:59.961Z,22.37
2018-06-25T20:21:26.630Z,22.36
2018-06-25T20:23:53.297Z,22.36
2018-06-25T20:26:19.965Z,22.35
2018-06-25T20:28:46.615Z,22.29
2018-06-25T20:31:19.385Z,22.34
2018-06-25T20:33:46.026Z,22.26
2018-06-25T20:36:13.547Z,22.36
2018-06-25T20:38:40.240Z,22.31
2018-06-25T20:41:07.036Z,22.35
2018-06-25T20:43:33.692Z,22.31
2018-06-25T20:46:00.358Z,22.27
2018-06-25T20:48:27.961Z,22.21
2018-06-25T20:50:54.654Z,22.19
2018-06-25T20:53:22.149Z,22.25
2018-06-25T20:55:48.825Z,22.21
2018-06-25T20:58:15.492Z,22.25
2018-06-25T21:00:44.421Z,22.20
2018-06-25T21:03:13.563Z,22.13
2018-06-25T21:05:40.230Z,22.17
2018-06-25T21:08:06.974Z,22.12
2018-06-25T21:10:34.485Z,22.14
2018-06-25T21:13:01.190Z,22.16
2018-06-25T21:15:27.856Z,22.16
2018-06-25T21:17:54.578Z,22.12
2018-06-25T21:20:21.278Z,22.11
2018-06-25T21:22:47.954Z,22.09
2018-06-25T21:25:14.678Z,22.10
2018-06-25T21:27:42.338Z,22.15
2018-06-25T21:30:09.119Z,22.11
2018-06-25T21:32:35.854Z,22.15
2018-06-25T21:35:02.545Z,22.10
2018-06-25T21:37:29.228Z,22.01
2018-06-25T21:39:55.896Z,22.06
2018-06-25T21:42:22.580Z,21.96
2018-06-25T21:44:49.249Z,21.98
2018-06-25T21:47:15.968Z,21.92
2018-06-25T21:49:43.761Z,22.06
2018-06-25T21:52:10.433Z,22.05
2018-06-25T21:54:38.072Z,22.02
2018-06-25T21:57:04.886Z,22.02
2018-06-25T21:59:32.679Z,22.07
2018-06-25T22:01:59.321Z,22.06
2018-06-25T22:04:27.025Z,22.02
2018-06-25T22:06:53.715Z,22.06
2018-06-25T22:09:21.253Z,21.99
2018-06-25T22:11:49.825Z,21.96
2018-06-25T22:14:16.535Z,21.98
2018-06-25T22:16:44.265Z,22.03
2018-06-25T22:19:11.076Z,22.04
2018-06-25T22:21:37.748Z,22.04
2018-06-25T22:24:04.854Z,22.00
2018-06-25T22:26:31.516Z,21.99
2018-06-25T22:28:58.345Z,21.98
2018-06-25T22:31:25.312Z,21.94
2018-06-25T22:33:52.787Z,21.94
2018-06-25T22:36:19.465Z,21.96
2018-06-25T22:38:46.148Z,21.91
2018-06-25T22:41:13.447Z,21.88
2018-06-25T22:43:40.277Z,22.05
2018-06-25T22:46:06.946Z,21.95
2018-06-25T22:48:33.612Z,21.87
2018-06-25T22:51:00.338Z,21.88
2018-06-25T22:53:27.000Z,21.87
2018-06-25T22:55:53.660Z,21.94
2018-06-25T22:58:20.313Z,21.93
2018-06-25T23:00:47.007Z,21.92
2018-06-25T23:03:19.322Z,22.09
2018-06-25T23:05:45.981Z,21.94
2018-06-25T23:08:13.787Z,21.91
2018-06-25T23:10:40.496Z,21.92
2018-06-25T23:13:07.264Z,21.98
2018-06-25T23:15:34.909Z,21.94
2018-06-25T23:18:02.654Z,21.96
2018-06-25T23:20:30.220Z,21.96
2018-06-25T23:22:57.692Z,21.87
2018-06-25T23:25:24.816Z,21.88
2018-06-25T23:27:51.828Z,21.88
2018-06-25T23:30:19.988Z,21.89
2018-06-25T23:32:47.609Z,21.82
2018-06-25T23:35:15.419Z,21.89
2018-06-25T23:37:44.385Z,21.89
2018-06-25T23:40:12.772Z,21.85
2018-06-25T23:42:39.720Z,21.90
2018-06-25T23:45:06.670Z,21.91
2018-06-25T23:47:36.516Z,21.96
2018-06-25T23:50:03.203Z,21.93
2018-06-25T23:52:29.953Z,21.94
2018-06-25T23:54:56.648Z,22.02
2018-06-25T23:57:23.349Z,21.92
2018-06-25T23:59:51.097Z,21.86
